Time;durP1;ratioP1;P1;durP2;ratioP2;P2;SDS_P1;SDS_P2;PMS_P1;PMS_P2;Temp;Humidity;BMP_temperature;BMP_pressure;BME280_temperature;BME280_humidity;BME280_pressure;Samples;Min_cycle;Max_cycle;Signal;HPM_P1;HPM_P2
2021/12/07 00:01:03;;;;;;;12.07;10.93;;;0.00;99.90;;;0.67;98.52;97300.69;5210025;28;20861;-56
2021/12/07 00:03:37;;;;;;;12.60;11.40;;;0.00;99.90;;;0.75;97.98;97307.28;5219283;28;20198;-58
2021/12/07 00:06:12;;;;;;;11.53;10.17;;;0.00;99.90;;;0.74;98.00;97309.63;5217793;28;20199;-56
2021/12/07 00:08:45;;;;;;;10.53;9.53;;;0.10;99.90;;;0.79;98.12;97311.78;5210374;28;20223;-57
2021/12/07 00:11:19;;;;;;;11.97;10.90;;;0.10;99.90;;;0.85;99.08;97314.81;5211397;28;20220;-57
2021/12/07 00:13:54;;;;;;;11.60;10.40;;;0.20;99.90;;;0.87;98.69;97307.44;5218265;28;20746;-57
2021/12/07 00:16:30;;;;;;;10.07;8.93;;;0.20;99.90;;;0.91;98.66;97301.88;5222454;28;20196;-58
2021/12/07 00:19:04;;;;;;;11.80;10.80;;;0.30;99.90;;;0.93;98.56;97291.97;5218624;28;20216;-56
2021/12/07 00:21:37;;;;;;;9.50;8.60;;;0.40;99.90;;;1.02;98.21;97287.72;5216825;28;21024;-58
2021/12/07 00:24:13;;;;;;;11.17;10.17;;;0.40;99.90;;;1.10;99.13;97287.59;5217232;28;20207;-59
2021/12/07 00:26:47;;;;;;;11.20;10.20;;;0.50;99.90;;;1.11;99.22;97276.75;5218332;28;20200;-58
2021/12/07 00:29:21;;;;;;;11.00;9.93;;;0.50;99.90;;;1.12;98.68;97272.63;5223852;28;20203;-55
2021/12/07 00:32:14;;;;;;;12.13;11.03;;;0.50;99.90;;;1.16;98.07;97277.16;5225024;28;20232;-57
2021/12/07 00:35:02;;;;;;;11.30;10.27;;;0.50;99.90;;;1.12;97.81;97262.56;5218999;28;20201;-60
2021/12/07 00:37:37;;;;;;;11.90;10.80;;;0.50;99.90;;;1.13;98.77;97269.34;5226372;28;20764;-58
2021/12/07 00:40:14;;;;;;;11.93;10.77;;;0.50;99.90;;;1.16;97.69;97271.25;5225128;28;20747;-57
2021/12/07 00:42:48;;;;;;;10.53;9.60;;;0.50;99.90;;;1.02;97.41;97255.00;5220594;28;20283;-54
2021/12/07 00:45:25;;;;;;;11.20;10.10;;;0.40;99.90;;;1.04;97.79;97249.34;5219007;28;20206;-54
2021/12/07 00:47:58;;;;;;;13.30;11.93;;;0.40;99.90;;;1.10;98.07;97248.97;5207207;28;20252;-57
2021/12/07 00:50:33;;;;;;;13.17;11.97;;;0.50;99.90;;;1.15;98.58;97245.22;5217434;28;20199;-57
2021/12/07 00:53:06;;;;;;;13.10;11.80;;;0.50;99.90;;;1.11;98.99;97239.00;5217042;28;20210;-59
2021/12/07 00:55:43;;;;;;;11.33;10.23;;;0.60;99.90;;;1.20;99.88;97238.91;5211884;28;20197;-59
2021/12/07 00:58:22;;;;;;;11.23;10.23;;;0.60;99.90;;;1.26;99.36;97246.97;5224495;28;20283;-58
2021/12/07 01:01:01;;;;;;;13.33;11.93;;;0.60;99.90;;;1.15;98.70;97247.72;5221319;28;20229;-59
2021/12/07 01:03:35;;;;;;;14.17;12.87;;;0.60;99.90;;;1.23;99.68;97245.81;5206824;28;20204;-59
2021/12/07 01:06:20;;;;;;;13.53;12.13;;;0.60;99.90;;;1.23;99.80;97256.78;5214864;28;20284;-57
2021/12/07 01:26:09;;;;;;;14.43;13.03;;;0.60;99.90;;;1.26;99.44;97287.25;5217852;28;20685;-61
2021/12/07 01:28:45;;;;;;;13.63;12.30;;;0.60;99.90;;;1.26;99.16;97283.81;5225951;28;20631;-56
2021/12/07 01:31:24;;;;;;;12.93;11.40;;;0.60;99.90;;;1.28;99.65;97269.75;5224361;28;20320;-58
2021/12/07 01:34:18;;;;;;;12.53;11.27;;;0.60;99.90;;;1.23;99.01;97287.00;5225569;28;20197;-57
2021/12/07 01:37:09;;;;;;;13.97;12.53;;;0.60;99.90;;;1.11;99.53;97280.91;5214440;28;20200;-59
2021/12/07 01:40:03;;;;;;;14.07;12.67;;;0.60;99.90;;;1.09;100.00;97278.28;5216317;28;20724;-61
2021/12/07 01:42:58;;;;;;;14.37;12.97;;;0.60;99.90;;;1.06;100.00;97277.13;5204436;28;20220;-58
2021/12/07 01:45:58;;;;;;;13.73;12.43;;;0.50;99.90;;;1.06;100.00;97272.09;5212611;28;20208;-55
2021/12/07 01:51:48;;;;;;;12.90;11.60;;;0.60;99.90;;;1.11;100.00;97265.81;5228123;28;20245;-54
2021/12/07 01:57:55;;;;;;;13.83;12.37;;;0.70;99.90;;;1.22;100.00;97260.03;5129140;28;20299;-61
2021/12/07 02:00:32;;;;;;;13.93;12.50;;;0.80;99.90;;;1.22;100.00;97264.19;5143235;28;20215;-58
2021/12/07 02:03:06;;;;;;;13.17;11.93;;;0.70;99.90;;;1.19;100.00;97268.97;5205152;28;20195;-59
2021/12/07 02:05:39;;;;;;;13.53;12.13;;;0.70;99.90;;;1.23;100.00;97274.41;5229075;28;20214;-60
2021/12/07 02:08:14;;;;;;;13.27;11.97;;;0.80;99.90;;;1.33;100.00;97233.25;5229389;28;20193;-59
2021/12/07 02:10:47;;;;;;;12.73;11.53;;;0.80;99.90;;;1.53;100.00;97229.84;5226802;28;20465;-59
2021/12/07 02:14:14;;;;;;;13.17;11.97;;;1.00;99.90;;;1.54;100.00;97246.69;5228342;28;20217;-56
2021/12/07 02:16:18;;;;;;;12.73;11.43;;;1.00;99.90;;;1.47;100.00;97252.00;5215517;28;20215;-59
2021/12/07 02:18:51;;;;;;;13.30;12.00;;;1.00;99.90;;;1.43;100.00;97257.53;5221778;28;20278;-57
2021/12/07 02:21:27;;;;;;;13.90;12.70;;;1.00;99.90;;;1.40;100.00;97239.66;5228431;28;20228;-56
2021/12/07 02:24:01;;;;;;;12.60;11.33;;;1.00;99.90;;;1.43;100.00;97235.78;5228917;28;20215;-61
2021/12/07 02:26:34;;;;;;;12.83;11.50;;;1.00;99.90;;;1.42;100.00;97254.13;5228629;28;20736;-53
2021/12/07 02:29:07;;;;;;;12.87;11.67;;;1.00;99.90;;;1.50;100.00;97248.09;5229065;28;20563;-60
2021/12/07 02:31:41;;;;;;;12.73;11.43;;;1.00;99.90;;;1.51;100.00;97254.00;5228367;28;20321;-56
2021/12/07 02:34:14;;;;;;;12.27;11.07;;;1.10;99.90;;;1.55;100.00;97253.50;5218605;28;20200;-57
2021/12/07 02:36:50;;;;;;;11.57;10.17;;;1.10;99.90;;;1.50;100.00;97277.44;5228413;28;20586;-59
2021/12/07 02:39:31;;;;;;;12.23;11.03;;;1.10;99.90;;;1.53;100.00;97273.53;5226149;28;20282;-52
2021/12/07 02:42:06;;;;;;;11.60;10.50;;;1.10;99.90;;;1.55;100.00;97263.59;5218205;28;20234;-55
2021/12/07 02:44:39;;;;;;;11.57;10.37;;;1.10;99.90;;;1.52;100.00;97260.81;5216812;28;20282;-59
2021/12/07 02:47:12;;;;;;;11.67;10.57;;;1.10;99.90;;;1.54;100.00;97265.19;5219322;28;20203;-58
2021/12/07 02:49:45;;;;;;;12.70;11.27;;;1.10;99.90;;;1.56;100.00;97268.72;5226515;28;20577;-58
2021/12/07 02:52:20;;;;;;;10.73;9.67;;;1.20;99.90;;;1.56;100.00;97271.25;5211675;28;20218;-58
2021/12/07 02:54:53;;;;;;;11.50;10.30;;;1.20;99.90;;;1.62;100.00;97258.28;5228161;28;20294;-59
2021/12/07 02:57:26;;;;;;;11.90;10.80;;;1.10;99.90;;;1.64;100.00;97264.31;5228396;28;20586;-58
2021/12/07 03:00:06;;;;;;;11.37;10.30;;;1.20;99.90;;;1.62;100.00;97253.25;5225148;28;20235;-59
2021/12/07 03:02:44;;;;;;;12.23;11.03;;;1.20;99.90;;;1.61;100.00;97264.09;5211959;28;20314;-56
2021/12/07 03:05:28;;;;;;;9.80;8.93;;;1.20;99.90;;;1.64;100.00;97271.88;5219894;28;20291;-54
2021/12/07 03:08:24;;;;;;;9.90;8.93;;;1.20;99.90;;;1.70;100.00;97267.34;5213868;28;20198;-57
2021/12/07 03:28:06;;;;;;;8.60;7.77;;;1.30;99.90;;;1.79;100.00;97288.22;5221788;28;20210;-56
2021/12/07 03:30:39;;;;;;;9.67;8.77;;;1.30;99.90;;;1.82;100.00;97287.59;5219507;28;20584;-57
2021/12/07 03:33:13;;;;;;;9.97;9.07;;;1.30;99.90;;;1.85;100.00;97292.00;5220927;28;20212;-57
2021/12/07 03:35:46;;;;;;;9.33;8.43;;;1.30;99.90;;;1.84;100.00;97283.56;5222618;28;20202;-57
2021/12/07 03:38:20;;;;;;;7.70;7.00;;;1.20;99.90;;;1.95;100.00;97295.41;5206972;28;20204;-57
2021/12/07 03:40:54;;;;;;;7.47;6.77;;;1.30;99.90;;;1.95;100.00;97290.38;5215234;28;20251;-55
2021/12/07 03:43:28;;;;;;;7.73;7.00;;;1.30;99.90;;;2.01;100.00;97300.06;5224630;28;20203;-59
2021/12/07 03:46:02;;;;;;;6.67;6.07;;;1.40;99.90;;;1.99;100.00;97304.97;5222703;28;20210;-56
2021/12/07 03:48:37;;;;;;;7.93;7.23;;;1.40;99.90;;;1.94;100.00;97301.19;5218245;28;20198;-61
2021/12/07 03:51:10;;;;;;;7.97;7.20;;;1.40;99.90;;;1.92;100.00;97304.38;5227097;28;20208;-60
2021/12/07 03:53:44;;;;;;;7.23;6.70;;;1.30;99.90;;;1.90;100.00;97310.91;5210529;28;20200;-62
2021/12/07 03:56:18;;;;;;;7.57;6.97;;;1.30;99.90;;;1.97;100.00;97306.47;5227095;28;20208;-59
2021/12/07 03:58:51;;;;;;;6.87;6.30;;;1.30;99.90;;;1.91;100.00;97300.06;5218620;28;20258;-60
2021/12/07 04:01:25;;;;;;;6.50;6.00;;;1.30;99.90;;;1.85;100.00;97309.66;5225541;28;20231;-58
2021/12/07 04:04:02;;;;;;;7.43;6.83;;;1.30;99.90;;;1.84;100.00;97311.28;5206312;28;20240;-59
2021/12/07 04:06:35;;;;;;;7.03;6.43;;;1.30;99.90;;;1.84;100.00;97311.28;5220609;28;20204;-59
2021/12/07 04:09:08;;;;;;;6.73;6.23;;;1.30;99.90;;;1.85;100.00;97318.06;5216204;28;20570;-61
2021/12/07 04:11:42;;;;;;;7.27;6.67;;;1.30;99.90;;;1.76;100.00;97323.25;5222662;28;20220;-60
2021/12/07 04:14:15;;;;;;;6.93;6.43;;;1.30;99.90;;;1.92;100.00;97332.94;5220348;28;20200;-60
2021/12/07 04:16:48;;;;;;;7.33;6.60;;;1.30;99.90;;;1.84;100.00;97336.47;5225709;28;20229;-62
2021/12/07 04:19:22;;;;;;;7.10;6.40;;;1.30;99.90;;;1.98;100.00;97320.84;5225554;28;20295;-58
2021/12/07 04:21:57;;;;;;;6.60;6.00;;;1.40;99.90;;;2.08;100.00;97327.50;5226356;28;20307;-56
2021/12/07 04:24:30;;;;;;;6.53;6.03;;;1.50;99.90;;;2.05;100.00;97327.25;5219072;28;20190;-62
2021/12/07 04:27:05;;;;;;;6.97;6.47;;;1.50;99.90;;;2.13;100.00;97331.28;5225983;28;20201;-59
2021/12/07 04:29:38;;;;;;;7.53;6.93;;;1.50;99.90;;;2.16;100.00;97331.53;5217935;28;22091;-58
2021/12/07 04:32:11;;;;;;;7.10;6.50;;;1.50;99.90;;;2.34;100.00;97342.19;5226533;28;20303;-65
2021/12/07 04:34:45;;;;;;;7.60;6.90;;;1.50;99.90;;;2.25;100.00;97327.22;5224477;28;20222;-65
2021/12/07 04:37:18;;;;;;;6.93;6.33;;;1.60;99.90;;;2.22;100.00;97337.06;5225281;28;20683;-64
2021/12/07 04:39:51;;;;;;;6.83;6.33;;;1.60;99.90;;;2.16;100.00;97340.72;5216853;28;20201;-65
2021/12/07 04:42:26;;;;;;;7.00;6.37;;;1.60;99.90;;;2.19;100.00;97341.84;5215668;28;20239;-63
2021/12/07 04:45:03;;;;;;;7.50;6.77;;;1.60;99.90;;;2.42;100.00;97347.84;5205331;28;20296;-64
2021/12/07 04:47:47;;;;;;;7.33;6.63;;;1.50;99.90;;;2.31;100.00;97353.69;5224160;28;20188;-65
2021/12/07 04:50:36;;;;;;;6.97;6.37;;;1.60;99.90;;;2.44;100.00;97349.75;5223699;28;20216;-65
2021/12/07 04:58:54;;;;;;;7.13;6.50;;;1.50;99.90;;;2.29;100.00;97352.66;5215165;28;20251;-66
2021/12/07 05:01:27;;;;;;;6.97;6.03;;;1.60;99.90;;;2.28;100.00;97361.88;5215391;28;20676;-66
2021/12/07 05:04:08;;;;;;;6.67;6.03;;;1.60;99.90;;;2.32;100.00;97376.50;5215700;28;20207;-64
2021/12/07 05:06:47;;;;;;;6.90;6.37;;;1.60;99.90;;;2.33;100.00;97377.38;5223721;28;20671;-65
2021/12/07 05:09:34;;;;;;;5.90;5.33;;;1.60;99.90;;;2.36;100.00;97370.06;5223821;28;20201;-66
2021/12/07 05:12:24;;;;;;;6.20;5.70;;;1.60;99.90;;;2.39;100.00;97381.28;5216141;28;20226;-66
2021/12/07 05:15:11;;;;;;;6.47;5.87;;;1.60;99.90;;;2.39;100.00;97381.28;5214034;28;20199;-66
2021/12/07 05:18:01;;;;;;;5.87;5.27;;;1.60;99.90;;;2.38;100.00;97384.56;5214503;28;20203;-65
2021/12/07 05:37:42;;;;;;;5.70;5.10;;;1.70;99.90;;;2.48;100.00;97416.44;5221942;28;20207;-65
2021/12/07 05:37:51;;;;;;;6.00;5.40;;;1.70;99.90;;;2.34;100.00;97422.00;5222759;28;20209;-65
2021/12/07 05:40:28;;;;;;;6.13;5.60;;;1.70;99.90;;;2.30;100.00;97430.09;5225337;28;20766;-64
2021/12/07 05:43:03;;;;;;;7.47;5.27;;;1.70;99.90;;;2.24;100.00;97433.88;5213776;28;20247;-65
2021/12/07 05:45:39;;;;;;;5.40;5.00;;;1.70;99.90;;;2.28;100.00;97434.13;5224761;28;20632;-66
2021/12/07 05:48:14;;;;;;;5.30;4.80;;;1.60;99.90;;;2.20;100.00;97438.50;5221027;28;20201;-66
2021/12/07 05:50:47;;;;;;;5.00;4.60;;;1.60;99.90;;;2.27;100.00;97434.88;5217107;28;20823;-66
2021/12/07 05:53:20;;;;;;;5.10;4.70;;;1.60;99.90;;;2.24;100.00;97433.00;5221709;28;20189;-65
2021/12/07 05:55:53;;;;;;;5.60;5.10;;;1.60;99.90;;;2.25;100.00;97443.19;5215887;28;20216;-65
2021/12/07 05:58:26;;;;;;;4.93;4.63;;;1.60;99.90;;;2.28;100.00;97446.72;5214045;28;20231;-65
2021/12/07 06:00:59;;;;;;;5.20;4.80;;;1.70;99.90;;;2.34;100.00;97448.09;5214357;28;20218;-66
2021/12/07 06:03:34;;;;;;;5.90;5.33;;;1.70;99.90;;;2.39;100.00;97445.97;5212679;28;20638;-65
2021/12/07 06:06:08;;;;;;;5.83;5.20;;;1.60;99.90;;;2.36;100.00;97441.53;5215852;28;20202;-64
2021/12/07 06:08:42;;;;;;;5.27;4.87;;;1.70;99.90;;;2.44;100.00;97449.75;5212711;28;20654;-64
2021/12/07 06:11:15;;;;;;;7.73;5.17;;;1.70;99.90;;;2.36;100.00;97455.78;5222244;28;20605;-65
2021/12/07 06:13:48;;;;;;;5.33;4.93;;;1.70;99.90;;;2.38;100.00;97464.38;5222926;28;20201;-64
2021/12/07 06:16:21;;;;;;;5.77;5.27;;;1.70;99.90;;;2.50;100.00;97465.38;5215603;28;20574;-65
2021/12/07 06:18:56;;;;;;;5.37;4.87;;;1.70;99.90;;;2.49;100.00;97463.63;5207337;28;20206;-65
2021/12/07 06:21:29;;;;;;;6.23;5.10;;;1.80;99.90;;;2.55;100.00;97459.06;5220110;28;20562;-64
2021/12/07 06:24:02;;;;;;;5.57;5.07;;;1.70;99.90;;;2.62;100.00;97466.34;5217714;28;20183;-65
2021/12/07 06:26:35;;;;;;;4.77;4.40;;;1.70;99.90;;;2.63;100.00;97464.69;5207793;28;20395;-65
2021/12/07 06:29:09;;;;;;;5.00;4.60;;;1.80;99.90;;;2.56;100.00;97475.94;5214106;28;20799;-66
2021/12/07 06:31:42;;;;;;;5.00;4.47;;;1.90;99.90;;;2.54;100.00;97477.47;5214968;28;20224;-66
2021/12/07 06:34:17;;;;;;;4.80;4.50;;;1.80;99.90;;;2.51;100.00;97487.28;5215654;28;20894;-66
2021/12/07 06:36:50;;;;;;;4.97;4.67;;;1.90;99.90;;;2.48;100.00;97485.41;5221514;28;20208;-66
2021/12/07 06:39:23;;;;;;;4.73;4.33;;;1.90;99.90;;;2.45;100.00;97491.84;5216660;28;20205;-66
2021/12/07 06:41:56;;;;;;;5.33;4.97;;;1.90;99.90;;;2.50;100.00;97489.72;5222147;28;20248;-65
2021/12/07 06:44:30;;;;;;;5.10;4.70;;;1.90;99.90;;;2.53;100.00;97490.84;5209455;28;20550;-64
2021/12/07 06:47:03;;;;;;;7.37;4.23;;;1.90;99.90;;;2.58;100.00;97489.56;5222168;28;20570;-66
2021/12/07 06:49:38;;;;;;;5.70;4.97;;;1.80;99.90;;;2.74;100.00;97490.81;5217813;28;20583;-65
2021/12/07 06:52:11;;;;;;;5.90;5.27;;;1.90;99.90;;;2.75;100.00;97487.50;5220618;28;20592;-65
2021/12/07 06:54:45;;;;;;;5.90;4.73;;;1.90;99.90;;;2.76;100.00;97484.25;5210687;28;20216;-66
2021/12/07 06:57:18;;;;;;;5.50;5.00;;;1.90;99.90;;;2.79;100.00;97487.91;5216181;28;20202;-65
2021/12/07 06:59:51;;;;;;;5.57;4.47;;;1.90;99.90;;;2.71;100.00;97499.88;5222903;28;20292;-65
2021/12/07 07:02:24;;;;;;;7.97;5.03;;;1.90;99.90;;;2.58;100.00;97494.63;5221146;28;20494;-66
2021/12/07 07:04:58;;;;;;;5.30;4.37;;;1.90;99.90;;;2.52;100.00;97483.13;5212201;28;20197;-63
2021/12/07 07:07:33;;;;;;;5.80;5.30;;;1.90;99.90;;;2.60;100.00;97495.59;5217783;28;20283;-64
2021/12/07 07:10:10;;;;;;;7.33;5.70;;;1.90;99.90;;;2.60;100.00;97485.50;5220159;28;20231;-64
2021/12/07 07:12:47;;;;;;;6.20;5.23;;;1.90;99.90;;;2.63;100.00;97493.38;5212711;28;20226;-64
2021/12/07 07:15:21;;;;;;;6.70;5.97;;;2.00;99.90;;;2.75;100.00;97497.59;5208601;28;20291;-64
2021/12/07 07:17:54;;;;;;;4.97;4.57;;;1.90;99.90;;;2.78;100.00;97505.47;5221355;28;20198;-65
2021/12/07 07:20:29;;;;;;;4.90;4.43;;;2.00;99.90;;;2.77;100.00;97503.66;5211946;28;20226;-62
2021/12/07 07:23:02;;;;;;;5.70;5.20;;;2.00;99.90;;;2.79;100.00;97512.25;5210112;28;20228;-64
2021/12/07 07:25:35;;;;;;;5.23;4.73;;;2.00;99.90;;;2.78;100.00;97508.84;5223789;28;20271;-64
2021/12/07 07:28:08;;;;;;;5.90;5.23;;;2.00;99.90;;;2.84;100.00;97523.59;5210169;28;20212;-64
2021/12/07 07:30:41;;;;;;;5.33;4.83;;;2.10;99.90;;;2.86;100.00;97532.16;5216081;28;20309;-64
2021/12/07 07:33:14;;;;;;;9.97;5.57;;;2.10;99.90;;;2.96;100.00;97524.59;5217432;28;20201;-64
2021/12/07 07:35:49;;;;;;;8.43;5.50;;;2.10;99.90;;;2.95;100.00;97532.94;5213649;28;20647;-64
2021/12/07 07:38:22;;;;;;;6.87;5.30;;;2.10;99.90;;;2.92;100.00;97540.25;5219505;28;20209;-64
2021/12/07 07:40:56;;;;;;;7.20;5.33;;;2.10;99.90;;;2.99;100.00;97544.16;5218313;28;20694;-64
2021/12/07 07:43:29;;;;;;;5.83;5.17;;;2.10;99.90;;;3.00;100.00;97556.88;5221643;28;20320;-64
2021/12/07 07:46:02;;;;;;;5.70;5.07;;;2.10;99.90;;;2.94;100.00;97563.97;5222318;28;20201;-64
2021/12/07 07:48:35;;;;;;;5.97;5.37;;;2.10;99.90;;;2.88;100.00;97568.50;5217090;28;20225;-63
2021/12/07 07:51:10;;;;;;;6.03;4.60;;;2.10;99.90;;;2.93;100.00;97569.78;5211814;28;20864;-64
2021/12/07 07:53:44;;;;;;;6.80;5.20;;;2.10;99.90;;;3.00;100.00;97566.09;5211882;28;20955;-62
2021/12/07 07:56:17;;;;;;;5.77;5.27;;;2.10;99.90;;;2.95;100.00;97563.22;5220598;28;20201;-62
2021/12/07 07:58:51;;;;;;;6.83;6.13;;;2.10;99.90;;;2.98;100.00;97572.69;5210754;28;20298;-63
2021/12/07 08:01:28;;;;;;;6.37;5.60;;;2.20;99.90;;;3.05;100.00;97570.75;5210099;28;20356;-64
2021/12/07 08:04:04;;;;;;;6.07;5.53;;;2.20;99.90;;;3.05;100.00;97575.81;5216793;28;20503;-64
2021/12/07 08:06:39;;;;;;;9.17;6.00;;;2.20;99.90;;;3.05;100.00;97574.94;5218158;28;20286;-64
2021/12/07 08:09:13;;;;;;;6.80;6.17;;;2.20;99.90;;;3.13;100.00;97579.84;5221260;28;20210;-64
2021/12/07 08:11:46;;;;;;;8.80;6.03;;;2.30;99.90;;;3.21;100.00;97587.16;5206806;28;20218;-63
2021/12/07 08:14:20;;;;;;;8.37;6.73;;;2.30;99.90;;;3.20;100.00;97590.44;5212036;28;20284;-63
2021/12/07 08:16:53;;;;;;;7.80;6.43;;;2.30;99.90;;;3.16;100.00;97590.19;5213954;28;20630;-64
2021/12/07 08:19:26;;;;;;;7.47;6.73;;;2.40;99.90;;;3.17;100.00;97591.06;5208195;28;20268;-63
2021/12/07 08:22:01;;;;;;;6.30;5.73;;;2.40;99.90;;;3.16;100.00;97594.38;5214460;28;20621;-62
2021/12/07 08:24:34;;;;;;;6.97;6.27;;;2.40;99.90;;;3.19;100.00;97598.78;5216095;28;20299;-64
2021/12/07 08:27:07;;;;;;;9.27;5.97;;;2.40;99.90;;;3.12;100.00;97599.94;5224682;28;20210;-64
2021/12/07 08:34:13;;;;;;;6.17;5.50;;;2.40;99.90;;;3.25;100.00;97605.19;5215762;28;20205;-62
2021/12/07 08:36:46;;;;;;;8.10;6.70;;;2.50;99.90;;;3.34;100.00;97605.06;5217049;28;20205;-64
2021/12/07 08:39:20;;;;;;;8.50;5.30;;;2.50;99.90;;;3.37;100.00;97600.25;5216312;28;20294;-63
2021/12/07 08:41:53;;;;;;;7.27;5.77;;;2.50;99.90;;;3.43;100.00;97602.38;5215965;28;20228;-64
2021/12/07 08:44:26;;;;;;;5.77;5.27;;;2.50;99.90;;;3.48;100.00;97604.50;5220546;28;20223;-64
2021/12/07 08:47:00;;;;;;;6.00;5.47;;;2.60;99.90;;;3.69;100.00;97600.31;5218923;28;20657;-63
2021/12/07 08:49:33;;;;;;;9.93;5.93;;;2.70;99.90;;;3.80;100.00;97606.19;5216528;28;20197;-62
2021/12/07 08:52:07;;;;;;;6.27;5.67;;;2.90;99.90;;;3.78;100.00;97607.72;5214319;28;20217;-64
2021/12/07 09:00:20;;;;;;;7.83;7.20;;;2.70;99.90;;;3.77;100.00;97614.41;5217329;28;20724;-63
2021/12/07 09:02:53;;;;;;;7.70;6.90;;;2.70;99.90;;;3.75;100.00;97615.03;5207208;28;20673;-64
2021/12/07 09:05:27;;;;;;;8.47;7.20;;;2.80;99.90;;;3.74;100.00;97613.28;5216205;28;20284;-63
2021/12/07 09:08:00;;;;;;;7.93;7.20;;;2.70;99.90;;;3.90;100.00;97615.38;5214000;28;20224;-64
2021/12/07 09:10:34;;;;;;;6.90;6.37;;;2.70;99.90;;;3.81;100.00;97615.56;5213086;28;20318;-64
2021/12/07 09:13:08;;;;;;;7.07;6.47;;;2.70;99.90;;;3.75;100.00;97630.19;5205262;28;20197;-64
2021/12/07 09:15:42;;;;;;;6.93;6.10;;;2.80;99.90;;;3.79;100.00;97627.19;5209454;28;20204;-64
2021/12/07 09:18:15;;;;;;;7.03;6.33;;;2.80;99.90;;;3.91;100.00;97625.59;5213273;28;20235;-64
2021/12/07 09:20:48;;;;;;;6.33;5.83;;;2.90;99.90;;;3.90;100.00;97618.78;5217850;28;20221;-63
2021/12/07 09:23:21;;;;;;;5.97;5.43;;;2.90;99.90;;;3.97;100.00;97617.63;5220334;28;20589;-63
2021/12/07 09:25:56;;;;;;;6.30;5.70;;;2.90;99.90;;;3.99;100.00;97623.69;5215330;28;20675;-64
2021/12/07 09:28:29;;;;;;;5.73;5.23;;;2.90;99.90;;;4.04;100.00;97620.75;5214536;28;20295;-64
2021/12/07 09:31:03;;;;;;;6.10;5.50;;;3.00;99.90;;;4.03;100.00;97628.22;5218992;28;20217;-64
2021/12/07 09:33:40;;;;;;;6.70;5.23;;;3.10;99.90;;;4.10;100.00;97619.47;5214734;28;20212;-64
2021/12/07 09:36:15;;;;;;;5.30;4.90;;;3.00;99.90;;;4.19;100.00;97635.34;5211426;28;20204;-64
2021/12/07 09:38:50;;;;;;;5.17;4.67;;;3.10;99.90;;;4.28;100.00;97625.94;5213209;28;20208;-64
2021/12/07 09:41:25;;;;;;;5.90;5.30;;;3.10;99.90;;;4.23;100.00;97637.34;5212704;28;20320;-64
2021/12/07 09:43:58;;;;;;;6.53;5.93;;;3.10;99.90;;;4.27;100.00;97636.84;5216276;28;20229;-63
2021/12/07 09:46:31;;;;;;;6.63;5.37;;;3.10;99.90;;;4.22;100.00;97636.47;5214007;28;20547;-63
2021/12/07 09:49:06;;;;;;;5.60;5.00;;;3.10;99.90;;;4.34;100.00;97634.00;5216344;28;20581;-63
2021/12/07 09:51:40;;;;;;;5.33;4.83;;;3.10;99.90;;;4.33;100.00;97634.78;5216112;28;20221;-63
2021/12/07 09:54:13;;;;;;;7.13;4.93;;;3.10;99.90;;;4.23;100.00;97627.22;5218782;28;20204;-63
2021/12/07 09:56:48;;;;;;;8.47;5.83;;;3.10;99.90;;;4.25;100.00;97626.59;5210941;28;20288;-63
2021/12/07 09:59:21;;;;;;;7.33;5.50;;;3.10;99.90;;;4.30;100.00;97639.59;5208920;28;20693;-64
2021/12/07 10:01:54;;;;;;;5.40;4.90;;;3.10;99.90;;;4.27;100.00;97629.25;5213856;28;20232;-63
2021/12/07 10:04:28;;;;;;;5.83;4.70;;;3.20;99.90;;;4.29;100.00;97630.22;5222433;28;20221;-64
2021/12/07 10:07:02;;;;;;;5.23;4.73;;;3.20;99.90;;;4.36;100.00;97635.00;5224334;28;20615;-63
2021/12/07 10:09:36;;;;;;;5.60;4.40;;;3.20;99.90;;;4.32;100.00;97632.13;5216464;28;20298;-63
2021/12/07 10:12:19;;;;;;;6.70;4.97;;;3.20;99.90;;;4.28;100.00;97641.13;5213605;28;20222;-63
2021/12/07 10:14:52;;;;;;;6.63;4.93;;;3.30;99.90;;;4.31;100.00;97636.28;5218687;28;20202;-62
2021/12/07 10:17:25;;;;;;;6.03;5.40;;;3.20;99.90;;;4.29;100.00;97633.66;5219700;28;20220;-63
2021/12/07 10:19:58;;;;;;;7.23;4.93;;;3.30;99.90;;;4.35;100.00;97622.22;5218166;28;20209;-63
2021/12/07 10:22:35;;;;;;;5.10;4.57;;;3.30;99.90;;;4.33;100.00;97629.72;5225471;28;20755;-64
2021/12/07 10:25:08;;;;;;;5.20;4.80;;;3.30;99.90;;;4.38;100.00;97628.44;5227320;28;20227;-63
2021/12/07 10:27:43;;;;;;;8.40;5.70;;;3.40;99.90;;;4.51;100.00;97626.06;5219275;28;20194;-63
2021/12/07 10:30:21;;;;;;;5.03;4.63;;;3.40;99.90;;;4.55;100.00;97626.28;5218548;28;20197;-63
2021/12/07 10:33:00;;;;;;;5.57;5.00;;;3.40;99.90;;;4.59;100.00;97624.13;5253025;22;20798;-62
2021/12/07 10:35:36;;;;;;;6.53;5.17;;;3.40;99.90;;;4.56;100.00;97634.00;5238168;28;20196;-64
2021/12/07 10:38:13;;;;;;;6.10;5.30;;;3.50;99.90;;;4.60;100.00;97640.19;5243427;28;20616;-64
2021/12/07 10:40:57;;;;;;;7.33;5.37;;;3.50;99.90;;;4.44;100.00;97639.03;5238330;28;20278;-65
2021/12/07 10:43:53;;;;;;;7.67;5.40;;;3.40;99.90;;;4.30;100.00;97634.53;5224423;28;20197;-64
2021/12/07 10:46:43;;;;;;;5.93;5.17;;;3.30;99.90;;;4.57;100.00;97634.88;5222865;28;20208;-62
2021/12/07 10:49:33;;;;;;;5.90;5.27;;;3.30;99.90;;;4.46;100.00;97632.44;5212611;28;20240;-60
2021/12/07 10:52:26;;;;;;;6.20;5.10;;;3.40;99.90;;;4.31;100.00;97610.13;5221845;28;20235;-62
2021/12/07 10:55:10;;;;;;;6.83;5.03;;;3.40;99.90;;;4.53;100.00;97602.53;5225946;28;20275;-60
2021/12/07 10:57:48;;;;;;;8.83;4.83;;;3.30;99.90;;;4.68;100.00;97601.16;5212780;28;20229;-64
2021/12/07 11:00:25;;;;;;;4.83;4.43;;;3.50;99.90;;;4.66;100.00;97590.00;5220675;28;20211;-64
2021/12/07 11:07:10;;;;;;;5.97;4.30;;;3.70;99.90;;;4.75;100.00;97562.88;5213589;28;20255;-65
2021/12/07 11:10:03;;;;;;;6.97;5.10;;;3.70;99.90;;;4.68;100.00;97566.59;5225044;28;20201;-65
2021/12/07 11:12:47;;;;;;;6.37;4.47;;;3.60;99.90;;;4.64;100.00;97567.13;5224520;28;20801;-65
2021/12/07 11:15:25;;;;;;;5.47;4.97;;;3.50;99.90;;;4.55;100.00;97573.13;5222207;28;20197;-65
2021/12/07 11:18:03;;;;;;;5.60;5.10;;;3.50;99.90;;;4.49;100.00;97576.09;5222133;28;20221;-64
2021/12/07 11:20:38;;;;;;;5.53;5.10;;;3.50;99.90;;;4.47;100.00;97565.00;5220882;28;20197;-64
2021/12/07 11:23:16;;;;;;;6.07;4.83;;;3.40;99.90;;;4.61;100.00;97553.38;5217186;28;20212;-61
2021/12/07 11:31:41;;;;;;;5.13;4.70;;;3.50;99.90;;;4.56;100.00;97552.16;5215279;28;20237;-64
2021/12/07 11:34:17;;;;;;;5.50;4.83;;;3.50;99.90;;;4.56;100.00;97552.16;5216705;28;20189;-64
2021/12/07 11:36:54;;;;;;;7.00;4.77;;;3.50;99.90;;;4.54;100.00;97548.63;5216424;28;20304;-64
2021/12/07 11:39:31;;;;;;;5.37;4.50;;;3.50;99.90;;;4.44;100.00;97550.47;5223375;28;20204;-63
2021/12/07 11:42:09;;;;;;;4.83;4.43;;;3.40;99.90;;;4.40;100.00;97562.75;5217879;28;20212;-64
2021/12/07 11:44:50;;;;;;;4.80;4.40;;;3.40;99.90;;;4.36;100.00;97561.66;5218403;28;20217;-65
2021/12/07 11:47:31;;;;;;;5.50;4.77;;;3.40;99.90;;;4.32;100.00;97552.06;5220743;28;20204;-64
2021/12/07 11:50:16;;;;;;;5.43;4.57;;;3.40;99.90;;;4.30;100.00;97548.53;5219337;28;20193;-63
2021/12/07 11:52:56;;;;;;;5.47;4.87;;;3.40;99.90;;;4.29;100.00;97541.69;5208592;28;20309;-64
2021/12/07 11:55:31;;;;;;;5.87;5.07;;;3.40;99.90;;;4.33;100.00;97552.94;5209828;28;20189;-61
2021/12/07 11:58:06;;;;;;;6.97;5.17;;;3.50;99.90;;;4.37;100.00;97545.69;5217583;28;20197;-63
2021/12/07 12:00:45;;;;;;;8.27;6.37;;;3.40;99.90;;;4.44;100.00;97547.06;5223018;28;20207;-64
2021/12/07 12:03:22;;;;;;;9.00;7.27;;;3.40;99.90;;;4.53;100.00;97541.81;5224836;28;20224;-65
2021/12/07 12:05:56;;;;;;;11.70;7.30;;;3.40;99.90;;;4.60;100.00;97532.22;5206580;28;20271;-64
2021/12/07 12:08:35;;;;;;;8.37;5.60;;;3.40;99.90;;;4.55;100.00;97525.06;5217040;28;20263;-63
2021/12/07 12:11:18;;;;;;;8.10;5.57;;;3.40;99.90;;;4.57;100.00;97537.06;5218403;28;20204;-62
2021/12/07 12:14:06;;;;;;;8.60;5.90;;;3.40;99.90;;;4.58;100.00;97538.84;5213832;28;20542;-65
2021/12/07 12:16:53;;;;;;;7.13;5.30;;;3.50;99.90;;;4.60;100.00;97539.81;5219610;28;20198;-63
2021/12/07 12:19:33;;;;;;;7.07;4.70;;;3.50;99.90;;;4.63;100.00;97534.97;5223003;28;20201;-63
2021/12/07 12:22:13;;;;;;;8.23;5.27;;;3.50;99.90;;;4.73;100.00;97532.38;5219426;28;20227;-63